4XCDN LLHZ-LLHZ

Flight info

Callsign 4XCDN
Flight time 0h 8m
Altitude 800
Route ROUNDERS
Aircraft C152/L-V/N

Departure

Time 2026-04-27 17:09
Airport Herzliya Airport (LLHZ)

Arrival

Time 2026-04-27 17:17
Airport Herzliya Airport (LLHZ)
Time Latitude Longitude Altitude Speed Heading
2026-04-27 16:54 32.18043 34.83232 102 ft 0 kts 20°
2026-04-27 17:02 32.18056 34.83250 103 ft 3 kts 113°
2026-04-27 17:02 32.18044 34.83289 103 ft 8 kts 109°
2026-04-27 17:02 32.18026 34.83351 105 ft 8 kts 109°
2026-04-27 17:03 32.18003 34.83427 106 ft 12 kts 109°
2026-04-27 17:03 32.17978 34.83514 108 ft 10 kts 109°
2026-04-27 17:03 32.17951 34.83604 111 ft 11 kts 109°
2026-04-27 17:03 32.17929 34.83679 115 ft 8 kts 108°
2026-04-27 17:04 32.17915 34.83726 117 ft 5 kts 108°
2026-04-27 17:04 32.17900 34.83776 118 ft 7 kts 110°
2026-04-27 17:04 32.17886 34.83824 119 ft 6 kts 109°
2026-04-27 17:04 32.17880 34.83851 122 ft 0 kts 83°
2026-04-27 17:07 32.17880 34.83853 122 ft 3 kts 72°
2026-04-27 17:08 32.17920 34.83831 124 ft 23 kts 292°
2026-04-27 17:08 32.18037 34.83441 136 ft 69 kts 293°
2026-04-27 17:08 32.18150 34.83086 258 ft 69 kts 297°
2026-04-27 17:08 32.18465 34.82762 462 ft 64 kts
2026-04-27 17:09 32.18922 34.82886 581 ft 70 kts 10°
2026-04-27 17:09 32.19298 34.83247 763 ft 77 kts 58°
2026-04-27 17:09 32.19173 34.83920 786 ft 96 kts 117°
2026-04-27 17:09 32.18795 34.84612 866 ft 103 kts 120°
2026-04-27 17:10 32.18382 34.85212 821 ft 88 kts 146°
2026-04-27 17:10 32.17807 34.85264 601 ft 76 kts 220°
2026-04-27 17:10 32.17601 34.84825 437 ft 55 kts 283°
2026-04-27 17:10 32.17752 34.84387 301 ft 60 kts 297°
2026-04-27 17:11 32.17886 34.83946 167 ft 55 kts 295°
2026-04-27 17:11 32.18156 34.83022 263 ft 68 kts 293°
2026-04-27 17:11 32.18422 34.82680 503 ft 62 kts
2026-04-27 17:12 32.19276 34.83020 795 ft 74 kts 38°
2026-04-27 17:12 32.19354 34.83612 813 ft 90 kts 109°
2026-04-27 17:12 32.18978 34.84295 835 ft 102 kts 122°
2026-04-27 17:13 32.18568 34.84935 772 ft 91 kts 120°
2026-04-27 17:13 32.18135 34.85386 698 ft 81 kts 186°
2026-04-27 17:13 32.17658 34.85111 603 ft 70 kts 252°
2026-04-27 17:13 32.17619 34.84655 470 ft 51 kts 301°
2026-04-27 17:14 32.17789 34.84257 273 ft 58 kts 297°
2026-04-27 17:14 32.17921 34.83807 132 ft 56 kts 295°
2026-04-27 17:14 32.18057 34.83366 142 ft 66 kts 293°
2026-04-27 17:14 32.18196 34.82866 348 ft 65 kts 300°
2026-04-27 17:15 32.18563 34.82684 483 ft 68 kts 11°
2026-04-27 17:15 32.19019 34.82852 635 ft 70 kts 12°
2026-04-27 17:15 32.19390 34.83185 838 ft 76 kts 54°
2026-04-27 17:15 32.19342 34.83877 832 ft 95 kts 108°
2026-04-27 17:16 32.19016 34.84577 827 ft 99 kts 118°
2026-04-27 17:16 32.18636 34.85229 835 ft 90 kts 130°
2026-04-27 17:16 32.18078 34.85348 747 ft 88 kts 195°
2026-04-27 17:16 32.17634 34.85057 518 ft 66 kts 265°
2026-04-27 17:17 32.17683 34.84587 363 ft 59 kts 298°
2026-04-27 17:17 32.17829 34.84114 229 ft 59 kts 295°
2026-04-27 17:17 32.17953 34.83710 114 ft 43 kts 294°
2026-04-27 17:18 32.18232 34.82786 370 ft 62 kts 313°
2026-04-27 17:18 32.18604 34.82730 533 ft 60 kts
2026-04-27 17:18 32.19021 34.82829 690 ft 63 kts
2026-04-27 17:18 32.19359 34.83141 839 ft 70 kts 52°
2026-04-27 17:19 32.19297 34.83781 828 ft 90 kts 114°
2026-04-27 17:19 32.18968 34.84379 772 ft 88 kts 120°
2026-04-27 17:19 32.18608 34.84994 810 ft 88 kts 121°
2026-04-27 17:19 32.18158 34.85330 761 ft 74 kts 194°
2026-04-27 17:20 32.17685 34.85114 602 ft 66 kts 237°
2026-04-27 17:20 32.17612 34.84666 484 ft 55 kts 297°
2026-04-27 17:20 32.17786 34.84232 311 ft 59 kts 298°
2026-04-27 17:20 32.17913 34.83836 130 ft 44 kts 297°
2026-04-27 17:21 32.17978 34.83633 108 ft 12 kts 290°
2026-04-27 17:21 32.17958 34.83582 107 ft 5 kts 263°
2026-04-27 17:21 32.17971 34.83536 106 ft 9 kts 290°
2026-04-27 17:21 32.17997 34.83450 104 ft 12 kts 290°
2026-04-27 17:22 32.18025 34.83353 100 ft 13 kts 289°
2026-04-27 17:22 32.18052 34.83261 98 ft 12 kts 290°
2026-04-27 17:22 32.18080 34.83167 98 ft 12 kts 290°
2026-04-27 17:22 32.18109 34.83071 94 ft 11 kts 289°
2026-04-27 17:23 32.18144 34.82994 92 ft 11 kts 297°
2026-04-27 17:23 32.18171 34.82909 91 ft 9 kts 285°
2026-04-27 17:23 32.18191 34.82841 91 ft 8 kts 290°
2026-04-27 17:23 32.18210 34.82817 91 ft 4 kts 22°
2026-04-27 17:24 32.18231 34.82809 90 ft 6 kts 261°
2026-04-27 17:24 32.18218 34.82802 90 ft 0 kts 104°